Last 48 Hours

Top of 15 - 9,047ft

15 Minute Data | America/Los_Angeles
as of 8/31/26 6:30 PM PDT
Date & Time Temp (°F) WindChill (°F) RH (%) Dew Pt (°F) Wet Bulb (°F) Wind Dir (°) Wind Spd (mph) Wind Gust (mph) Wind Gst Dir (°) Daily Min Temp (°F) Daily Max Temp (°F) Daily Max Wind (mph)
8/31/26 - 1830 50.5 - 57 35.7 43.8 SW | 217 11.6 23.6 WSW | 245 49.0 62.3 31.0
8/31/26 - 1815 50.7 - 56 35.8 43.9 SW | 226 12.9 31.0 WSW | 256 49.0 62.3 31.0
8/31/26 - 1800 51.2 - 56 35.9 44.2 SW | 225 13.0 27.5 SW | 230 49.0 62.3 30.0
8/31/26 - 1745 52.2 - 53 35.8 44.6 SW | 227 13.5 30.0 SW | 216 49.0 62.3 30.0
8/31/26 - 1730 52.7 - 53 35.9 44.9 SW | 226 12.3 28.2 SW | 217 49.0 62.3 28.2
8/31/26 - 1715 53.2 - 51 35.8 45.1 SW | 228 9.6 20.9 WSW | 248 49.0 62.3 21.4
8/31/26 - 1700 53.9 - 50 35.9 45.4 SW | 229 8.8 19.9 SSW | 206 49.0 62.3 21.4
8/31/26 - 1645 54.4 - 49 35.7 45.6 SW | 218 7.1 17.0 WSW | 251 49.0 62.3 21.4
8/31/26 - 1630 55.2 - 46 34.9 45.6 SW | 222 6.8 16.9 S | 187 49.0 62.3 21.4
8/31/26 - 1615 55.8 - 45 34.8 45.8 SW | 217 5.5 16.6 SW | 230 49.0 62.3 21.4
8/31/26 - 1600 56.0 - 44 34.2 45.7 SSW | 211 4.4 15.3 SW | 230 49.0 62.3 21.4
8/31/26 - 1545 57.0 - 42 34.1 46.1 SSW | 193 5.5 15.5 SSW | 196 49.0 62.3 21.4
8/31/26 - 1530 57.3 - 41 33.7 46.1 SSW | 202 6.1 19.6 SSW | 205 49.0 62.3 21.4
8/31/26 - 1515 57.6 - 40 33.3 46.1 SW | 222 5.3 20.4 SSW | 204 49.0 62.3 21.4
8/31/26 - 1500 58.5 - 38 32.7 46.3 SW | 227 6.2 18.1 SW | 230 49.0 62.3 21.4
8/31/26 - 1445 58.4 - 37 32.5 46.1 SSW | 195 6.0 16.3 SSE | 162 49.0 62.3 21.4
8/31/26 - 1430 59.8 - 35 31.9 46.5 SSW | 210 6.7 15.8 SW | 226 49.0 62.3 21.4
8/31/26 - 1415 58.9 - 34 30.8 45.8 SW | 227 7.8 20.3 SW | 233 49.0 62.3 21.4
8/31/26 - 1400 58.4 - 33 29.4 45.1 SSW | 211 7.6 18.9 SW | 235 49.0 62.3 21.4
8/31/26 - 1345 58.6 - 32 28.6 44.9 SSW | 211 6.6 16.8 SSW | 205 49.0 62.3 21.4
8/31/26 - 1330 58.4 - 30 27.2 44.4 SW | 226 8.2 17.8 WSW | 238 49.0 62.3 21.4
8/31/26 - 1315 58.9 - 28 26.0 44.3 SSW | 201 5.6 20.2 S | 188 49.0 62.3 21.4
8/31/26 - 1300 58.4 - 29 26.4 44.2 SSW | 200 6.2 21.4 SSW | 196 49.0 62.3 21.4
8/31/26 - 1245 57.8 - 30 26.8 44.0 SW | 217 6.5 19.2 SW | 216 49.0 62.3 19.2
8/31/26 - 1230 59.3 - 28 26.1 44.4 SW | 221 4.8 17.3 WSW | 242 49.0 62.3 17.3
8/31/26 - 1215 58.9 - 28 26.1 44.3 S | 188 3.2 11.5 SW | 225 49.0 62.3 15.6
8/31/26 - 1200 57.9 - 29 25.7 43.8 WNW | 282 4.6 15.6 WNW | 292 49.0 62.3 15.6
8/31/26 - 1145 57.1 - 29 25.0 43.2 WSW | 256 4.8 12.1 W | 279 49.0 62.3 15.3
8/31/26 - 1130 58.0 - 27 24.2 43.4 SW | 229 3.6 9.7 SW | 230 49.0 62.3 15.3
8/31/26 - 1115 60.3 - 25 24.5 44.5 SSE | 166 5.7 13.9 S | 173 49.0 62.3 15.3
8/31/26 - 1100 59.6 - 25 24.2 44.0 S | 178 3.8 12.1 SW | 217 49.0 61.6 15.3
8/31/26 - 1045 58.9 - 27 24.7 43.9 SSE | 158 3.9 9.7 SSW | 200 49.0 61.6 15.3
8/31/26 - 1030 59.0 - 27 25.4 44.2 SSE | 166 2.9 9.0 S | 177 49.0 61.6 15.3
8/31/26 - 1015 60.1 - 27 25.9 44.8 SE | 137 3.8 10.3 SSE | 154 49.0 61.6 15.3
8/31/26 - 1000 59.0 - 28 26.0 44.3 E | 99 3.7 10.1 ESE | 102 49.0 60.5 15.3
8/31/26 - 0945 58.1 - 29 25.6 43.8 ESE | 108 3.5 7.6 ESE | 109 49.0 59.6 15.3
8/31/26 - 0930 57.6 - 28 25.0 43.4 SSE | 165 2.7 8.3 SSE | 162 49.0 58.3 15.3
8/31/26 - 0915 56.2 - 28 23.4 42.3 S | 169 3.9 10.4 SE | 137 49.0 57.5 15.3
8/31/26 - 0900 55.6 - 25 20.8 41.4 S | 170 4.3 10.9 SE | 141 49.0 56.2 15.3
8/31/26 - 0845 55.6 - 24 19.7 41.1 SSE | 168 4.7 12.2 SSW | 201 49.0 55.9 15.3
8/31/26 - 0830 55.2 - 23 17.6 40.5 S | 182 4.7 10.9 S | 180 49.0 55.7 15.3
8/31/26 - 0815 54.9 - 19 13.8 39.6 S | 191 3.1 10.7 S | 188 49.0 55.5 15.3
8/31/26 - 0800 54.3 - 19 12.7 39.1 SW | 217 5.8 15.3 SSW | 202 49.0 54.8 15.3
8/31/26 - 0745 53.8 - 21 15.3 39.3 SW | 217 6.7 14.5 SW | 214 49.0 54.2 14.8
8/31/26 - 0730 53.2 - 25 18.4 39.7 SSW | 209 5.6 12.5 SSW | 211 49.0 53.5 14.8
8/31/26 - 0715 52.5 - 24 17.2 39.1 SW | 214 6.3 14.6 SW | 219 49.0 52.8 14.8
8/31/26 - 0700 52.0 - 26 18.2 39.1 SW | 218 7.2 14.8 SW | 236 49.0 52.6 14.8
8/31/26 - 0645 51.2 - 31 21.3 39.4 SW | 219 6.2 13.9 SSW | 194 49.0 52.6 14.7
8/31/26 - 0630 51.0 - 33 23.0 39.7 SW | 230 7.4 14.7 WSW | 239 49.0 52.6 14.7
8/31/26 - 0615 50.8 - 34 23.4 39.7 SW | 222 4.8 12.2 SW | 215 49.0 52.6 12.2
8/31/26 - 0600 51.2 - 34 24.1 40.1 SW | 230 5.2 11.1 SW | 221 49.0 52.6 11.3
8/31/26 - 0545 50.8 - 36 24.5 40.0 SW | 232 3.9 10.3 SW | 229 49.0 52.6 11.3
8/31/26 - 0530 50.8 - 36 24.8 40.1 SW | 234 4.8 11.0 SW | 228 49.0 52.6 11.3
8/31/26 - 0515 50.8 - 37 25.5 40.3 SW | 232 2.1 9.0 SW | 222 49.0 52.6 11.3
8/31/26 - 0500 51.1 - 36 25.1 40.4 SW | 233 4.8 10.8 W | 263 49.0 52.6 11.3
8/31/26 - 0445 51.1 - 35 24.1 40.1 SW | 216 5.0 10.4 SW | 219 49.0 52.6 11.3
8/31/26 - 0430 51.5 - 32 22.4 39.8 SW | 229 5.3 11.3 WSW | 250 49.0 52.6 11.3
8/31/26 - 0415 51.6 - 31 22.2 39.8 WSW | 246 3.1 7.3 SW | 236 49.0 52.6 7.3
8/31/26 - 0400 51.4 - 36 25.2 40.6 WSW | 237 3.2 7.3 WSW | 246 49.0 52.6 7.3
8/31/26 - 0345 51.5 - 36 25.7 40.8 WSW | 243 2.4 5.8 WSW | 245 49.0 52.6 6.5
8/31/26 - 0330 50.4 - 38 25.7 40.2 WNW | 290 1.1 2.7 WNW | 289 49.0 52.6 6.5
8/31/26 - 0315 49.4 - 40 26.4 39.9 NW | 316 0.9 2.3 NW | 316 49.0 52.6 6.5
8/31/26 - 0300 50.0 - 40 26.4 40.2 WNW | 291 0.6 2.2 WNW | 282 49.6 52.6 6.5
8/31/26 - 0245 50.0 - 40 26.4 40.2 W | 271 0.3 1.8 W | 262 49.6 52.6 6.5
8/31/26 - 0230 50.8 - 38 26.2 40.5 WNW | 298 0.0 0.7 W | 272 50.2 52.6 6.5
8/31/26 - 0215 51.0 - 37 25.8 40.5 WNW | 286 0.3 2.3 WNW | 284 50.5 52.6 6.5
8/31/26 - 0200 51.1 - 37 25.8 40.6 W | 262 1.9 6.5 WSW | 237 50.5 52.6 6.5
8/31/26 - 0145 51.7 - 36 25.3 40.7 WNW | 285 0.7 3.0 WSW | 249 50.5 52.6 6.0
8/31/26 - 0130 50.9 - 37 25.4 40.4 W | 268 2.3 4.0 WNW | 283 50.5 52.6 6.0
8/31/26 - 0115 51.7 - 35 25.1 40.7 WSW | 251 3.3 6.0 WSW | 246 51.1 52.6 6.0
8/31/26 - 0100 52.3 - 34 24.7 40.8 WSW | 252 3.5 7.4 WSW | 244 47.6 64.0 27.2
8/31/26 - 0045 52.4 - 34 24.6 40.9 W | 263 3.0 4.9 WSW | 250 47.6 64.0 27.2
8/31/26 - 0030 53.4 - 32 24.2 41.2 NW | 304 0.3 1.9 NW | 317 47.6 64.0 27.2
8/31/26 - 0015 53.7 - 31 24.0 41.3 NE | 46 0.2 2.0 ENE | 76 47.6 64.0 27.2
8/31/26 - 0000 53.6 - 31 23.8 41.2 SW | 218 3.1 9.2 SW | 214 47.6 64.0 27.2
8/30/26 - 2345 53.6 - 30 23.2 41.1 SW | 234 7.1 13.4 SW | 222 47.6 64.0 27.2
8/30/26 - 2330 53.7 - 31 24.1 41.4 SW | 230 7.9 14.5 WSW | 251 47.6 64.0 27.2
8/30/26 - 2315 53.7 - 33 25.6 41.8 SW | 232 8.4 15.5 WSW | 247 47.6 64.0 27.2
8/30/26 - 2300 54.5 - 32 25.4 42.1 SW | 226 7.6 14.5 SW | 226 47.6 64.0 27.2
8/30/26 - 2245 54.5 - 32 25.4 42.1 SW | 225 6.7 13.9 SW | 221 47.6 64.0 27.2
8/30/26 - 2230 54.4 - 32 25.0 42.0 SW | 219 5.2 13.7 SW | 228 47.6 64.0 27.2
8/30/26 - 2215 54.4 - 33 25.9 42.2 SW | 225 7.1 16.3 SW | 235 47.6 64.0 27.2
8/30/26 - 2200 54.9 - 34 26.8 42.7 SW | 228 9.2 17.0 SW | 232 47.6 64.0 27.2
8/30/26 - 2145 54.8 - 35 27.5 42.8 SW | 227 9.4 17.1 SW | 228 47.6 64.0 27.2
8/30/26 - 2130 55.4 - 34 27.5 43.2 SW | 217 9.1 19.7 WSW | 242 47.6 64.0 27.2
8/30/26 - 2115 55.0 - 36 28.3 43.2 SW | 225 10.2 19.5 SW | 223 47.6 64.0 27.2
8/30/26 - 2100 54.8 - 38 29.6 43.5 SSW | 213 9.8 22.4 SW | 223 47.6 64.0 27.2
8/30/26 - 2045 54.8 - 39 30.2 43.7 SSW | 210 9.4 17.8 SW | 232 47.6 64.0 27.2
8/30/26 - 2030 54.3 - 38 29.5 43.3 SSW | 206 10.3 21.4 SSW | 212 47.6 64.0 27.2
8/30/26 - 2015 54.2 - 34 26.6 42.3 SSW | 201 11.4 20.9 S | 191 47.6 64.0 27.2
8/30/26 - 2000 53.9 - 30 23.2 41.2 SSW | 201 11.4 23.5 SSW | 210 47.6 64.0 27.2
8/30/26 - 1945 53.8 - 25 19.1 40.1 SSW | 200 10.2 20.4 SSW | 203 47.6 64.0 27.2
8/30/26 - 1930 53.7 - 23 16.2 39.5 SSW | 207 10.4 22.7 SW | 216 47.6 64.0 27.2
8/30/26 - 1915 53.4 - 26 19.1 40.0 SSW | 203 10.4 24.4 SSW | 195 47.6 64.0 27.2
8/30/26 - 1900 53.5 - 31 23.6 41.1 SSW | 204 12.2 24.7 SW | 214 47.6 64.0 27.2
8/30/26 - 1845 54.0 - 32 24.8 41.7 SSW | 211 12.8 26.0 SSW | 197 47.6 64.0 27.2
8/30/26 - 1830 54.3 - 33 26.0 42.2 SSW | 209 10.6 24.9 SSW | 207 47.6 64.0 27.2
8/30/26 - 1815 54.7 - 38 29.6 43.5 SSW | 208 10.2 24.3 SSW | 201 47.6 64.0 27.2
8/30/26 - 1800 55.4 - 38 30.0 44.0 SSW | 210 9.9 20.9 WSW | 252 47.6 64.0 27.2
8/30/26 - 1745 57.1 - 34 29.1 44.4 SW | 221 9.9 20.1 SW | 224 47.6 64.0 27.2
8/30/26 - 1730 57.8 - 32 28.2 44.4 SW | 225 10.0 25.8 SSW | 213 47.6 64.0 27.2
8/30/26 - 1715 58.3 - 30 27.0 44.3 SW | 224 10.0 23.0 WSW | 238 47.6 64.0 27.2
8/30/26 - 1700 58.8 - 30 27.1 44.5 SW | 223 9.1 18.5 SSW | 211 47.6 64.0 27.2
8/30/26 - 1645 59.1 - 30 27.4 44.8 SW | 228 9.6 18.9 WSW | 244 47.6 64.0 27.2
8/30/26 - 1630 59.4 - 29 27.4 44.9 SW | 222 10.0 23.9 WSW | 242 47.6 64.0 27.2
8/30/26 - 1615 59.7 - 29 27.7 45.1 SW | 218 9.4 19.8 WSW | 246 47.6 64.0 27.2
8/30/26 - 1600 59.6 - 30 27.8 45.1 SW | 224 9.6 20.4 WSW | 254 47.6 64.0 27.2
8/30/26 - 1545 60.2 - 27 26.5 45.0 SW | 233 10.1 18.1 WSW | 258 47.6 64.0 27.2
8/30/26 - 1530 60.1 - 27 25.8 44.8 SW | 233 8.7 19.7 WSW | 246 47.6 64.0 27.2
8/30/26 - 1515 60.5 - 24 23.5 44.3 SW | 215 7.1 22.6 SW | 231 47.6 64.0 27.2
8/30/26 - 1500 60.6 - 23 22.7 44.1 SSW | 206 6.4 15.3 SSW | 198 47.6 64.0 27.2
8/30/26 - 1445 60.7 - 21 21.0 43.8 SW | 221 7.1 16.8 SW | 232 47.6 64.0 27.2
8/30/26 - 1430 60.9 - 20 19.4 43.5 SSW | 207 7.3 19.9 S | 189 47.6 64.0 27.2
8/30/26 - 1415 60.7 - 19 17.6 43.0 SW | 224 7.0 18.8 SW | 227 47.6 64.0 27.2
8/30/26 - 1400 61.4 - 18 17.0 43.2 SW | 223 5.6 14.5 WSW | 238 47.6 64.0 27.2
8/30/26 - 1345 61.3 - 16 14.6 42.7 SW | 227 5.5 15.2 WSW | 248 47.6 64.0 27.2
8/30/26 - 1330 60.4 - 16 13.8 42.1 SSW | 204 4.4 15.3 SSW | 193 47.6 64.0 27.2
8/30/26 - 1315 61.0 - 15 13.6 42.4 SSW | 204 4.3 13.9 SW | 221 47.6 64.0 27.2
8/30/26 - 1300 61.9 - 14 12.6 42.6 SSW | 212 3.8 13.6 W | 268 47.6 64.0 27.2
8/30/26 - 1245 61.7 - 16 14.4 42.8 SSW | 204 3.5 9.7 SSE | 155 47.6 64.0 27.2
8/30/26 - 1230 62.7 - 16 16.2 43.6 SSW | 193 4.1 13.2 SW | 235 47.6 64.0 27.2
8/30/26 - 1215 62.4 - 17 17.0 43.6 S | 185 3.3 9.4 SSW | 198 47.6 64.0 27.2
8/30/26 - 1200 60.6 - 18 16.6 42.7 ESE | 116 3.1 9.5 SSE | 156 47.6 64.0 27.2
8/30/26 - 1145 62.7 - 16 16.2 43.6 E | 92 2.9 8.2 ESE | 117 47.6 64.0 27.2
8/30/26 - 1130 61.4 - 16 14.7 42.7 E | 83 3.5 11.8 ESE | 119 47.6 62.7 27.2
8/30/26 - 1115 61.2 - 15 13.8 42.5 ESE | 116 1.8 9.3 E | 101 47.6 62.7 27.2
8/30/26 - 1100 60.8 - 16 14.4 42.4 E | 83 2.5 8.2 ENE | 76 47.6 61.6 27.2
8/30/26 - 1045 60.2 - 16 13.3 42.0 ESE | 105 3.3 11.2 ESE | 118 47.6 61.4 27.2
8/30/26 - 1030 58.5 - 16 12.2 41.0 ESE | 118 2.9 8.6 E | 87 47.6 60.3 27.2
8/30/26 - 1015 58.5 - 16 11.8 41.0 E | 100 3.1 10.3 ESE | 112 47.6 59.8 27.2
8/30/26 - 1000 58.5 - 15 11.6 40.9 E | 90 2.6 6.5 E | 89 47.6 59.8 27.2
8/30/26 - 0945 57.8 - 17 12.8 40.8 ESE | 118 1.0 4.5 NE | 41 47.6 58.5 27.2
8/30/26 - 0930 57.4 - 17 13.0 40.6 ESE | 108 2.7 6.2 E | 88 47.6 58.2 27.2
8/30/26 - 0915 55.6 - 16 10.1 39.3 ESE | 104 2.8 6.8 ESE | 109 47.6 56.7 27.2
8/30/26 - 0900 55.1 - 16 10.0 39.0 SE | 137 2.5 6.7 SE | 140 47.6 55.9 27.2
8/30/26 - 0845 54.4 - 17 10.4 38.7 S | 187 2.6 7.7 SSW | 198 47.6 54.7 27.2
8/30/26 - 0830 54.0 - 18 11.9 38.8 SSW | 192 3.5 11.0 WSW | 256 47.6 54.7 27.2
8/30/26 - 0815 52.6 - 21 13.6 38.4 SSW | 205 4.4 13.3 SSW | 208 47.6 53.1 27.2
8/30/26 - 0800 51.8 - 25 16.9 38.7 SSW | 213 5.1 15.2 WSW | 245 47.6 52.1 27.2
8/30/26 - 0745 51.3 - 29 19.8 39.1 SSW | 213 2.4 8.6 SW | 221 47.6 51.7 27.2
8/30/26 - 0730 51.0 - 29 20.0 39.0 SW | 219 4.6 15.8 WSW | 250 47.6 51.2 27.2
8/30/26 - 0715 50.4 - 28 18.9 38.4 SSW | 194 5.3 16.3 SSW | 208 47.6 50.8 27.2
8/30/26 - 0700 49.7 46.6 30 19.2 38.1 SW | 218 7.3 20.6 SW | 232 47.6 50.1 27.2
8/30/26 - 0645 49.0 45.2 30 19.3 37.8 SW | 226 8.9 20.8 SSW | 210 47.6 49.3 27.2
8/30/26 - 0630 48.1 43.8 32 19.8 37.4 SW | 217 9.7 24.8 SSW | 197 47.6 49.3 27.2
8/30/26 - 0615 48.0 43.9 33 20.4 37.5 SW | 221 8.8 22.3 SW | 215 47.7 49.3 27.2
8/30/26 - 0600 48.3 44.8 31 19.3 37.4 SW | 215 7.7 17.2 SSW | 196 48.0 49.3 27.2
8/30/26 - 0545 48.6 45.2 31 19.4 37.6 SW | 214 7.6 17.2 SW | 214 48.4 49.3 27.2
8/30/26 - 0530 48.7 44.9 30 18.9 37.5 SSW | 210 8.7 23.6 SSW | 213 48.5 49.3 27.2
8/30/26 - 0515 48.8 45.3 30 18.9 37.6 SSW | 198 7.9 18.9 SSW | 211 48.5 49.3 27.2
8/30/26 - 0500 48.7 44.9 31 19.2 37.6 SSW | 198 8.6 21.3 S | 180 48.5 49.3 27.2
8/30/26 - 0445 48.8 46.2 31 19.4 37.7 SSW | 203 6.1 18.7 SW | 226 48.5 49.3 27.2
8/30/26 - 0430 48.7 45.1 32 20.2 37.8 SSW | 197 8.3 20.4 SSW | 198 48.5 49.3 27.2
8/30/26 - 0415 48.8 44.9 32 20.2 37.9 SSW | 200 8.9 20.3 SSW | 211 48.5 49.3 27.2
8/30/26 - 0400 48.9 44.5 32 20.2 37.9 SSW | 205 10.5 21.5 SSW | 204 48.5 49.3 27.2
8/30/26 - 0345 48.9 45.0 32 20.5 38.0 SSW | 202 9.2 22.9 SW | 214 48.5 49.3 27.2
8/30/26 - 0330 48.9 44.8 34 21.6 38.3 SSW | 209 9.8 27.2 SSW | 212 48.5 49.3 27.2
8/30/26 - 0315 48.8 44.0 37 23.5 38.8 SW | 217 11.5 26.7 SW | 236 48.5 49.3 26.7
8/30/26 - 0300 49.0 44.6 38 24.6 39.1 SSW | 210 10.5 25.4 SW | 220 48.5 49.3 25.4
8/30/26 - 0245 49.0 44.2 39 24.8 39.2 SW | 216 11.8 25.4 SW | 233 48.5 49.1 25.4
8/30/26 - 0230 48.8 44.9 41 26.1 39.5 SW | 220 8.8 22.4 SSW | 209 48.5 49.1 22.4
8/30/26 - 0215 48.9 45.0 39 24.9 39.2 SW | 218 8.9 21.4 SSW | 207 48.5 49.1 21.4
8/30/26 - 0200 48.8 45.9 41 26.2 39.6 SW | 220 6.7 17.6 SW | 219 48.5 49.1 17.9
8/30/26 - 0145 48.9 47.1 39 25.0 39.2 SW | 220 4.7 16.7 S | 171 48.5 49.1 17.9
8/30/26 - 0130 49.0 46.7 38 24.3 39.1 SW | 216 5.6 17.9 WSW | 244 48.5 49.1 17.9
8/30/26 - 0115 48.9 46.8 40 25.5 39.4 SW | 225 5.2 15.9 SW | 223 48.5 49.1 15.9
8/30/26 - 0100 49.2 - 38 24.5 39.3 SW | 233 2.5 8.2 SW | 220 48.1 59.8 27.3
8/30/26 - 0045 49.9 - 34 23.0 39.2 SW | 214 1.5 5.5 S | 191 48.1 59.8 27.3
8/30/26 - 0030 50.4 - 33 22.2 39.2 SSW | 198 2.9 8.1 S | 178 48.1 59.8 27.3
8/30/26 - 0015 50.6 - 34 23.5 39.6 SSW | 205 2.6 10.6 S | 189 48.1 59.8 27.3
8/30/26 - 0000 50.8 - 32 22.1 39.4 SSW | 210 2.1 8.3 SSW | 192 48.1 59.8 27.3
8/29/26 - 2345 50.6 - 35 23.9 39.8 SW | 215 3.5 8.8 SW | 228 48.1 59.8 27.3
8/29/26 - 2330 50.6 - 38 25.7 40.3 SW | 226 3.9 11.5 WSW | 246 48.1 59.8 27.3
8/29/26 - 2315 50.3 - 41 27.7 40.8 SW | 230 4.2 13.2 WSW | 248 48.1 59.8 27.3
8/29/26 - 2300 49.9 47.1 47 30.6 41.5 SW | 226 6.9 15.2 SW | 222 48.1 59.8 27.3
8/29/26 - 2245 49.8 46.6 50 32.2 42.1 SW | 233 7.9 15.3 W | 260 48.1 59.8 27.3
8/29/26 - 2230 49.9 47.3 51 32.2 42.1 SW | 235 6.5 12.5 WSW | 246 48.1 59.8 27.3
8/29/26 - 2215 49.5 46.5 52 32.7 42.1 SW | 236 7.2 17.0 WSW | 244 48.1 59.8 27.3
8/29/26 - 2200 49.4 47.8 51 32.1 41.8 SW | 236 4.6 10.3 WSW | 238 48.1 59.8 27.3
8/29/26 - 2145 48.5 46.5 61 35.6 42.7 WSW | 244 4.9 11.0 W | 260 48.1 59.8 27.3
8/29/26 - 2130 48.4 - 64 36.7 43.2 WSW | 244 2.6 7.7 W | 261 48.2 59.8 27.3
8/29/26 - 2115 48.4 - 64 36.8 43.2 SW | 229 2.6 6.6 SW | 220 48.2 59.8 27.3
8/29/26 - 2100 48.7 - 63 36.7 43.3 SW | 227 1.5 5.5 SW | 215 48.2 59.8 27.3
8/29/26 - 2045 49.0 - 62 36.6 43.4 SW | 230 0.4 2.0 W | 266 48.2 59.8 27.3
8/29/26 - 2030 49.1 - 62 36.6 43.4 WSW | 248 2.8 9.8 W | 277 48.2 59.8 27.3
8/29/26 - 2015 49.3 - 61 36.4 43.5 WSW | 256 1.5 7.3 W | 268 48.2 59.8 27.3
8/29/26 - 2000 49.7 - 60 36.4 43.6 W | 265 2.6 11.2 WSW | 240 48.2 59.8 27.3
8/29/26 - 1945 50.2 - 59 36.3 43.9 WSW | 254 1.2 6.2 W | 275 48.2 59.8 27.3
8/29/26 - 1930 50.9 - 56 35.8 44.0 SW | 236 1.8 7.3 S | 183 48.2 59.8 27.3
8/29/26 - 1915 51.4 - 50 33.6 43.4 S | 190 1.0 7.2 WSW | 243 48.2 59.8 27.3
8/29/26 - 1900 51.8 - 49 33.4 43.5 WNW | 289 1.2 6.1 WNW | 290 48.2 59.8 27.3
8/29/26 - 1845 52.2 - 48 33.3 43.6 SW | 222 1.0 5.0 SW | 232 48.2 59.8 27.3
8/29/26 - 1830 52.6 - 46 32.2 43.4 SSW | 208 4.2 17.4 S | 183 48.2 59.8 27.3
Max 62.7 47.8 64 36.8 46.5 - 13.5 31.0 - 51.1 64.0 31.0
Avg 54.1 45.5 33 24.6 41.8 - 5.8 14.4 - - - -
Min 48.0 43.8 14 10.0 37.4 - 0.0 0.7 - 47.6 49.1 6.0